createdAt,value
2019-03-25T00:00:48.623Z,6.30
2019-03-25T00:01:48.612Z,6.40
2019-03-25T00:02:48.602Z,6.20
2019-03-25T00:03:48.593Z,5.40
2019-03-25T00:04:48.579Z,6.10
2019-03-25T00:05:48.568Z,5.90
2019-03-25T00:06:48.560Z,6.50
2019-03-25T00:07:48.549Z,6.00
2019-03-25T00:08:48.536Z,6.00
2019-03-25T00:09:48.525Z,5.70
2019-03-25T00:10:48.517Z,5.90
2019-03-25T00:11:48.503Z,6.50
2019-03-25T00:12:48.498Z,5.80
2019-03-25T00:13:48.485Z,6.20
2019-03-25T00:14:48.536Z,5.60
2019-03-25T00:15:48.466Z,5.10
2019-03-25T00:16:48.454Z,5.90
2019-03-25T00:17:48.439Z,5.60
2019-03-25T00:18:48.436Z,5.10
2019-03-25T00:19:48.419Z,5.30
2019-03-25T00:20:48.414Z,5.50
2019-03-25T00:21:48.398Z,5.20
2019-03-25T00:22:48.388Z,5.00
2019-03-25T00:23:48.375Z,5.10
2019-03-25T00:24:48.366Z,5.00
2019-03-25T00:25:48.358Z,4.60
2019-03-25T00:26:48.348Z,4.60
2019-03-25T00:27:48.333Z,4.90
2019-03-25T00:28:48.327Z,5.00
2019-03-25T00:29:48.314Z,4.90
2019-03-25T00:30:48.300Z,4.80
2019-03-25T00:31:48.290Z,5.10
2019-03-25T00:32:48.280Z,5.10
2019-03-25T00:33:48.272Z,4.70
2019-03-25T00:34:48.259Z,4.90
2019-03-25T00:35:48.254Z,4.10
2019-03-25T00:36:48.237Z,4.10
2019-03-25T00:37:48.227Z,4.40
2019-03-25T00:38:48.235Z,4.50
2019-03-25T00:39:48.204Z,4.50
2019-03-25T00:40:48.194Z,4.30
2019-03-25T00:41:48.185Z,4.70
2019-03-25T00:42:48.177Z,4.60
2019-03-25T00:43:48.163Z,4.70
2019-03-25T00:44:48.151Z,5.20
2019-03-25T00:45:48.144Z,4.90
2019-03-25T00:46:48.130Z,4.20
2019-03-25T00:47:48.120Z,4.60
2019-03-25T00:48:48.112Z,4.00
2019-03-25T00:49:48.100Z,4.60
2019-03-25T00:50:48.091Z,4.30
2019-03-25T00:51:48.076Z,4.60
2019-03-25T00:52:48.065Z,4.00
2019-03-25T00:53:48.059Z,4.30
2019-03-25T00:54:50.129Z,4.10
2019-03-25T00:55:48.035Z,3.70
2019-03-25T00:56:48.026Z,4.10
2019-03-25T00:57:48.016Z,3.80
2019-03-25T00:58:48.002Z,4.20
2019-03-25T00:59:49.069Z,3.80
2019-03-25T01:00:47.984Z,3.80
2019-03-25T01:01:47.970Z,3.80
2019-03-25T01:02:47.965Z,3.50
2019-03-25T01:03:47.952Z,4.20
2019-03-25T01:04:47.939Z,4.00
2019-03-25T01:05:47.930Z,3.90
2019-03-25T01:06:47.920Z,4.10
2019-03-25T01:07:47.909Z,3.60
2019-03-25T01:08:47.904Z,3.80
2019-03-25T01:09:47.889Z,4.30
2019-03-25T01:10:47.872Z,3.80
2019-03-25T01:11:49.324Z,3.80
2019-03-25T01:12:47.860Z,3.40
2019-03-25T01:13:47.851Z,3.30
2019-03-25T01:14:47.836Z,3.40
2019-03-25T01:15:47.823Z,3.70
2019-03-25T01:16:47.813Z,3.60
2019-03-25T01:17:47.801Z,3.60
2019-03-25T01:18:47.795Z,3.80
2019-03-25T01:19:47.777Z,3.40
2019-03-25T01:20:47.769Z,3.30
2019-03-25T01:21:47.761Z,3.40
2019-03-25T01:22:47.747Z,3.40
2019-03-25T01:23:47.739Z,3.00
2019-03-25T01:24:47.726Z,3.30
2019-03-25T01:25:47.715Z,3.50
2019-03-25T01:26:47.707Z,3.10
2019-03-25T01:27:47.693Z,3.50
2019-03-25T01:28:47.691Z,3.40
2019-03-25T01:29:47.669Z,3.00
2019-03-25T01:30:47.664Z,3.30
2019-03-25T01:31:47.650Z,3.30
2019-03-25T01:32:47.638Z,3.50
2019-03-25T01:33:47.627Z,3.40
2019-03-25T01:34:47.619Z,3.60
2019-03-25T01:35:47.609Z,3.30
2019-03-25T01:36:47.597Z,3.20
2019-03-25T01:37:47.584Z,3.40
2019-03-25T01:38:47.577Z,3.20
2019-03-25T01:39:47.568Z,3.40
2019-03-25T01:40:47.552Z,3.30
2019-03-25T01:41:47.545Z,3.20
2019-03-25T01:42:47.530Z,3.80
2019-03-25T01:43:47.523Z,2.90
2019-03-25T01:44:47.511Z,3.40
2019-03-25T01:45:47.498Z,3.30
2019-03-25T01:46:47.487Z,3.20
2019-03-25T01:47:47.479Z,3.30
2019-03-25T01:48:47.473Z,3.20
2019-03-25T01:49:47.465Z,3.00
2019-03-25T01:50:47.448Z,3.30
2019-03-25T01:51:47.434Z,3.70
2019-03-25T01:52:47.427Z,2.70
2019-03-25T01:53:47.414Z,3.20
2019-03-25T01:54:47.404Z,3.90
2019-03-25T01:55:47.395Z,3.10
2019-03-25T01:56:47.383Z,3.30
2019-03-25T01:57:47.370Z,3.30
2019-03-25T01:58:47.364Z,3.30
2019-03-25T01:59:47.352Z,3.00
2019-03-25T02:00:47.340Z,3.00
2019-03-25T02:01:47.326Z,2.90
2019-03-25T02:02:47.315Z,2.90
2019-03-25T02:03:47.308Z,3.00
2019-03-25T02:04:47.297Z,3.20
2019-03-25T02:05:47.286Z,2.90
2019-03-25T02:06:47.274Z,3.10
2019-03-25T02:07:47.265Z,3.30
2019-03-25T02:08:47.253Z,3.20
2019-03-25T02:09:47.245Z,3.20
2019-03-25T02:10:47.233Z,3.40
2019-03-25T02:11:47.222Z,3.30
2019-03-25T02:12:47.210Z,3.00
2019-03-25T02:13:47.202Z,3.10
2019-03-25T02:14:47.190Z,3.10
2019-03-25T02:15:47.180Z,2.90
2019-03-25T02:16:47.169Z,3.10
2019-03-25T02:17:47.157Z,2.90
2019-03-25T02:18:47.152Z,3.10
2019-03-25T02:19:47.137Z,2.70
2019-03-25T02:20:47.129Z,3.10
2019-03-25T02:21:47.114Z,2.70
2019-03-25T02:22:47.341Z,3.00
2019-03-25T02:23:47.097Z,3.40
2019-03-25T02:24:47.084Z,2.90
2019-03-25T02:25:47.074Z,3.30
2019-03-25T02:26:47.060Z,3.00
2019-03-25T02:27:47.052Z,2.90
2019-03-25T02:28:47.044Z,2.80
2019-03-25T02:29:47.027Z,2.90
2019-03-25T02:30:47.024Z,3.30
2019-03-25T02:31:47.012Z,2.60
2019-03-25T02:32:46.996Z,3.00
2019-03-25T02:33:46.986Z,3.30
2019-03-25T02:35:01.605Z,3.00
2019-03-25T02:35:46.975Z,3.30
2019-03-25T02:36:46.953Z,3.40
2019-03-25T02:37:46.943Z,3.30
2019-03-25T02:38:46.934Z,3.10
2019-03-25T02:39:46.921Z,2.90
2019-03-25T02:40:46.915Z,2.90
2019-03-25T02:41:46.901Z,3.10
2019-03-25T02:42:46.890Z,2.50
2019-03-25T02:43:46.885Z,3.00
2019-03-25T02:44:46.867Z,2.80
2019-03-25T02:45:46.857Z,3.00
2019-03-25T02:46:46.848Z,2.70
2019-03-25T02:47:46.836Z,2.90
2019-03-25T02:48:46.827Z,3.30
2019-03-25T02:49:46.821Z,2.90
2019-03-25T02:50:46.806Z,3.00
2019-03-25T02:51:46.794Z,2.90
2019-03-25T02:52:46.784Z,3.20
2019-03-25T02:53:46.773Z,3.00
2019-03-25T02:54:46.760Z,3.30
2019-03-25T02:55:46.751Z,3.20
2019-03-25T02:56:46.743Z,2.80
2019-03-25T02:57:46.729Z,3.10
2019-03-25T02:58:46.721Z,2.70
2019-03-25T02:59:46.707Z,2.80
2019-03-25T03:00:46.701Z,3.60
2019-03-25T03:01:46.687Z,3.00
2019-03-25T03:02:46.678Z,2.70
2019-03-25T03:03:46.664Z,2.70
2019-03-25T03:04:46.655Z,2.90
2019-03-25T03:05:46.645Z,3.10
2019-03-25T03:06:46.633Z,3.00
2019-03-25T03:07:46.623Z,3.00
2019-03-25T03:08:47.658Z,2.80
2019-03-25T03:09:46.604Z,2.60
2019-03-25T03:10:46.592Z,2.80
2019-03-25T03:11:46.583Z,3.20
2019-03-25T03:12:46.570Z,2.70
2019-03-25T03:13:46.567Z,2.90
2019-03-25T03:14:46.550Z,3.10
2019-03-25T03:15:46.537Z,2.50
2019-03-25T03:16:46.526Z,3.20
2019-03-25T03:17:46.519Z,3.20
2019-03-25T03:18:46.507Z,2.70
2019-03-25T03:19:46.493Z,2.70
2019-03-25T03:20:46.486Z,2.70
2019-03-25T03:21:46.474Z,3.10
2019-03-25T03:22:46.472Z,3.00
2019-03-25T03:23:46.473Z,3.40
2019-03-25T03:24:46.441Z,2.90
2019-03-25T03:25:57.336Z,2.90
2019-03-25T03:26:47.421Z,2.80
2019-03-25T03:27:46.413Z,2.80
2019-03-25T03:28:46.405Z,3.20
2019-03-25T03:29:46.387Z,2.80
2019-03-25T03:30:46.377Z,2.60
2019-03-25T03:31:46.410Z,2.90
2019-03-25T03:32:46.507Z,2.70
2019-03-25T03:33:46.346Z,3.00
2019-03-25T03:34:46.348Z,2.80
2019-03-25T03:35:46.780Z,3.00
2019-03-25T03:36:46.313Z,3.10
2019-03-25T03:37:46.305Z,2.80
2019-03-25T03:38:46.301Z,2.80
2019-03-25T03:39:46.280Z,3.00
2019-03-25T03:40:46.334Z,2.60
2019-03-25T03:41:46.261Z,3.00
2019-03-25T03:42:46.249Z,2.80
2019-03-25T03:43:46.239Z,3.00
2019-03-25T03:44:46.227Z,3.10
2019-03-25T03:45:46.218Z,3.10
2019-03-25T03:46:46.205Z,2.60
2019-03-25T03:47:46.199Z,3.00
2019-03-25T03:48:46.186Z,2.60
2019-03-25T03:49:46.201Z,2.80
2019-03-25T03:50:46.164Z,3.00
2019-03-25T03:51:46.153Z,2.90
2019-03-25T03:52:46.143Z,2.90
2019-03-25T03:53:46.137Z,3.30
2019-03-25T03:54:46.162Z,2.80
2019-03-25T03:55:46.109Z,3.60
2019-03-25T03:56:46.099Z,3.20
2019-03-25T03:57:46.093Z,3.00
2019-03-25T03:58:46.083Z,3.10
2019-03-25T03:59:46.066Z,2.60
2019-03-25T04:00:46.057Z,3.00
2019-03-25T04:01:46.046Z,3.40
2019-03-25T04:02:46.038Z,3.20
2019-03-25T04:03:46.026Z,3.30
2019-03-25T04:04:46.015Z,2.90
2019-03-25T04:05:46.003Z,3.00
2019-03-25T04:06:45.994Z,3.00
2019-03-25T04:07:45.980Z,3.30
2019-03-25T04:08:45.973Z,3.10
2019-03-25T04:09:45.960Z,2.90
2019-03-25T04:10:45.950Z,3.10
2019-03-25T04:11:45.939Z,2.90
2019-03-25T04:12:45.930Z,2.90
2019-03-25T04:13:45.920Z,3.30
2019-03-25T04:14:45.906Z,3.10
2019-03-25T04:15:45.900Z,2.70
2019-03-25T04:16:45.887Z,3.00
2019-03-25T04:17:45.874Z,3.00
2019-03-25T04:18:45.870Z,2.70
2019-03-25T04:19:45.856Z,3.10
2019-03-25T04:20:45.842Z,2.90
2019-03-25T04:21:45.837Z,2.90
2019-03-25T04:22:45.820Z,3.20
2019-03-25T04:23:46.487Z,3.30
2019-03-25T04:24:45.799Z,3.10
2019-03-25T04:25:45.790Z,3.20
2019-03-25T04:26:45.779Z,3.50
2019-03-25T04:27:45.768Z,3.50
2019-03-25T04:28:45.764Z,3.30
2019-03-25T04:29:45.749Z,3.40
2019-03-25T04:30:45.736Z,2.90
2019-03-25T04:31:45.725Z,3.40
2019-03-25T04:32:45.713Z,3.50
2019-03-25T04:33:45.705Z,3.00
2019-03-25T04:34:45.713Z,3.20
2019-03-25T04:35:45.682Z,3.60
2019-03-25T04:36:45.673Z,3.60
2019-03-25T04:37:45.663Z,3.30
2019-03-25T04:38:45.653Z,3.70
2019-03-25T04:39:45.641Z,4.00
2019-03-25T04:40:45.634Z,3.10
2019-03-25T04:41:45.618Z,3.50
2019-03-25T04:42:45.607Z,3.60
2019-03-25T04:43:45.599Z,3.10
2019-03-25T04:44:45.585Z,3.20
2019-03-25T04:45:45.577Z,3.20
2019-03-25T04:46:45.565Z,3.40
2019-03-25T04:47:45.554Z,3.10
2019-03-25T04:48:45.547Z,3.60
2019-03-25T04:49:45.535Z,3.30
2019-03-25T04:50:45.523Z,3.90
2019-03-25T04:51:45.513Z,3.80
2019-03-25T04:52:45.501Z,3.40
2019-03-25T04:53:45.489Z,3.10
2019-03-25T04:54:45.478Z,3.10
2019-03-25T04:55:45.467Z,3.60
2019-03-25T04:56:45.461Z,3.00
2019-03-25T04:57:45.447Z,3.30
2019-03-25T04:58:45.440Z,3.50
2019-03-25T04:59:45.425Z,3.30
2019-03-25T05:00:45.415Z,3.10
2019-03-25T05:01:45.403Z,3.40
2019-03-25T05:02:45.394Z,3.20
2019-03-25T05:03:45.383Z,3.60
2019-03-25T05:04:45.431Z,3.40
2019-03-25T05:05:45.363Z,3.90
2019-03-25T05:06:45.351Z,3.10
2019-03-25T05:07:45.344Z,3.20
2019-03-25T05:08:45.330Z,3.10
2019-03-25T05:09:45.320Z,3.30
2019-03-25T05:10:45.315Z,3.30
2019-03-25T05:11:45.299Z,3.20
2019-03-25T05:12:45.286Z,3.00
2019-03-25T05:13:45.283Z,2.90
2019-03-25T05:14:45.266Z,3.30
2019-03-25T05:15:45.257Z,3.30
2019-03-25T05:16:45.244Z,3.30
2019-03-25T05:17:45.234Z,3.10
2019-03-25T05:18:45.226Z,3.30
2019-03-25T05:19:45.212Z,3.30
2019-03-25T05:20:45.201Z,3.50
2019-03-25T05:21:45.198Z,3.40
2019-03-25T05:22:45.181Z,3.30
2019-03-25T05:23:45.172Z,3.50
2019-03-25T05:24:45.160Z,3.40
2019-03-25T05:25:45.149Z,3.20
2019-03-25T05:26:51.055Z,3.50
2019-03-25T05:27:46.125Z,3.50
2019-03-25T05:28:45.118Z,3.40
2019-03-25T05:29:45.103Z,3.10
2019-03-25T05:30:45.173Z,3.40
2019-03-25T05:31:45.090Z,3.60
2019-03-25T05:32:45.075Z,3.60
2019-03-25T05:33:45.062Z,4.30
2019-03-25T05:34:45.054Z,3.80
2019-03-25T05:35:46.870Z,3.80
2019-03-25T05:36:45.029Z,3.80
2019-03-25T05:37:45.020Z,3.70
2019-03-25T05:38:45.013Z,3.70
2019-03-25T05:39:44.997Z,4.00
2019-03-25T05:40:44.989Z,3.70
2019-03-25T05:41:44.977Z,3.80
2019-03-25T05:42:44.966Z,3.50
2019-03-25T05:43:44.955Z,3.50
2019-03-25T05:44:44.947Z,3.60
2019-03-25T05:45:44.934Z,3.80
2019-03-25T05:46:44.924Z,4.00
2019-03-25T05:47:44.912Z,4.00
2019-03-25T05:48:44.904Z,3.60
2019-03-25T05:49:44.890Z,3.50
2019-03-25T05:50:44.884Z,3.50
2019-03-25T05:51:44.869Z,3.60
2019-03-25T05:52:44.858Z,3.20
2019-03-25T05:53:44.848Z,3.60
2019-03-25T05:54:44.839Z,3.80
2019-03-25T05:55:44.830Z,3.60
2019-03-25T05:56:44.814Z,3.90
2019-03-25T05:57:44.804Z,3.60
2019-03-25T05:58:44.798Z,3.90
2019-03-25T05:59:44.783Z,3.80
2019-03-25T06:00:44.776Z,3.60
2019-03-25T06:01:44.762Z,3.90
2019-03-25T06:02:44.751Z,3.80
2019-03-25T06:03:44.741Z,3.80
2019-03-25T06:04:44.730Z,3.80
2019-03-25T06:05:44.720Z,4.30
2019-03-25T06:06:44.713Z,4.30
2019-03-25T06:07:44.697Z,4.50
2019-03-25T06:08:44.691Z,4.60
2019-03-25T06:09:44.677Z,4.30
2019-03-25T06:10:44.664Z,4.90
2019-03-25T06:11:44.693Z,4.70
2019-03-25T06:12:44.645Z,4.70
2019-03-25T06:13:44.635Z,4.90
2019-03-25T06:14:44.622Z,5.00
2019-03-25T06:15:44.613Z,5.60
2019-03-25T06:16:44.602Z,5.60
2019-03-25T06:17:44.920Z,5.10
2019-03-25T06:18:44.580Z,5.20
2019-03-25T06:19:44.592Z,5.00
2019-03-25T06:20:44.559Z,5.00
2019-03-25T06:21:44.576Z,4.90
2019-03-25T06:22:44.551Z,4.60
2019-03-25T06:23:44.668Z,5.30
2019-03-25T06:24:44.646Z,5.00
2019-03-25T06:25:44.588Z,5.00
2019-03-25T06:26:44.495Z,5.00
2019-03-25T06:27:44.483Z,4.90
2019-03-25T06:28:44.473Z,7.20
2019-03-25T06:29:45.269Z,6.80
2019-03-25T06:30:44.453Z,5.60
2019-03-25T06:31:44.505Z,5.90
2019-03-25T06:32:44.430Z,6.00
2019-03-25T06:33:44.419Z,6.00
2019-03-25T06:34:44.410Z,5.30
2019-03-25T06:35:44.398Z,6.10
2019-03-25T06:36:44.386Z,5.60
2019-03-25T06:37:44.377Z,5.50
2019-03-25T06:38:44.369Z,6.10
2019-03-25T06:39:44.357Z,6.30
2019-03-25T06:40:44.345Z,6.00
2019-03-25T06:41:44.338Z,6.80
2019-03-25T06:42:44.324Z,6.60
2019-03-25T06:43:44.313Z,6.10
2019-03-25T06:44:44.327Z,5.90
2019-03-25T06:45:44.295Z,6.60
2019-03-25T06:46:44.281Z,6.20
2019-03-25T06:47:44.269Z,6.90
2019-03-25T06:48:44.262Z,7.20
2019-03-25T06:49:44.249Z,6.80
2019-03-25T06:50:44.237Z,7.40
2019-03-25T06:51:45.273Z,6.50
2019-03-25T06:52:44.217Z,6.30
2019-03-25T06:53:44.212Z,6.10
2019-03-25T06:54:44.195Z,6.00
2019-03-25T06:55:44.183Z,6.60
2019-03-25T06:56:44.174Z,6.80
2019-03-25T06:57:44.167Z,7.00
2019-03-25T06:58:44.155Z,7.30
2019-03-25T06:59:44.143Z,6.80
2019-03-25T07:00:44.130Z,6.90
2019-03-25T07:01:44.121Z,7.50
2019-03-25T07:02:44.112Z,7.20
2019-03-25T07:03:44.099Z,7.00
2019-03-25T07:04:44.090Z,6.50
2019-03-25T07:05:44.078Z,6.00
2019-03-25T07:06:44.072Z,6.50
2019-03-25T07:07:44.058Z,6.20
2019-03-25T07:08:44.049Z,6.90
2019-03-25T07:09:44.035Z,7.50
2019-03-25T07:10:44.024Z,7.60
2019-03-25T07:11:44.014Z,8.00
2019-03-25T07:12:44.011Z,7.60
2019-03-25T07:13:43.993Z,8.30
2019-03-25T07:14:43.981Z,7.50
2019-03-25T07:15:44.286Z,7.90
2019-03-25T07:16:43.962Z,7.70
2019-03-25T07:17:43.950Z,7.80
2019-03-25T07:18:43.948Z,7.20
2019-03-25T07:19:43.928Z,7.90
2019-03-25T07:20:43.922Z,7.70
2019-03-25T07:21:43.908Z,7.60
2019-03-25T07:22:43.897Z,7.20
2019-03-25T07:23:43.891Z,7.70
2019-03-25T07:24:43.875Z,6.90
2019-03-25T07:25:43.865Z,7.40
2019-03-25T07:26:43.854Z,7.20
2019-03-25T07:27:43.844Z,7.50
2019-03-25T07:28:43.841Z,7.10
2019-03-25T07:29:43.822Z,7.00
2019-03-25T07:30:43.811Z,7.70
2019-03-25T07:31:43.802Z,7.70
2019-03-25T07:32:43.790Z,7.60
2019-03-25T07:33:43.824Z,7.80
2019-03-25T07:34:43.768Z,8.00
2019-03-25T07:35:43.760Z,7.70
2019-03-25T07:36:43.748Z,7.90
2019-03-25T07:37:43.746Z,8.20
2019-03-25T07:38:43.732Z,8.40
2019-03-25T07:39:43.715Z,8.20
2019-03-25T07:40:43.706Z,7.90
2019-03-25T07:41:43.696Z,8.80
2019-03-25T07:42:43.684Z,7.80
2019-03-25T07:43:43.673Z,7.20
2019-03-25T07:44:43.667Z,7.10
2019-03-25T07:45:43.652Z,6.50
2019-03-25T07:46:43.645Z,6.90
2019-03-25T07:47:43.635Z,7.00
2019-03-25T07:48:43.623Z,6.50
2019-03-25T07:49:43.611Z,6.00
2019-03-25T07:50:43.598Z,6.10
2019-03-25T07:51:43.586Z,6.70
2019-03-25T07:52:43.579Z,6.30
2019-03-25T07:53:43.578Z,5.90
2019-03-25T07:54:43.567Z,6.20
2019-03-25T07:55:43.545Z,6.60
2019-03-25T07:56:43.544Z,6.70
2019-03-25T07:57:48.207Z,6.10
2019-03-25T07:58:44.520Z,6.50
2019-03-25T07:59:43.520Z,6.00
2019-03-25T08:00:43.509Z,6.50
2019-03-25T08:01:43.490Z,5.90
2019-03-25T08:02:43.485Z,6.60
2019-03-25T08:03:43.463Z,6.00
2019-03-25T08:04:43.448Z,6.50
2019-03-25T08:05:43.447Z,6.60
2019-03-25T08:06:43.477Z,6.20
2019-03-25T08:07:43.451Z,6.20
2019-03-25T08:08:43.419Z,6.70
2019-03-25T08:09:43.432Z,7.10
2019-03-25T08:10:43.392Z,7.30
2019-03-25T08:11:43.378Z,7.00
2019-03-25T08:12:43.399Z,7.70
2019-03-25T08:13:43.364Z,7.40
2019-03-25T08:14:43.344Z,6.60
2019-03-25T08:15:43.332Z,6.80
2019-03-25T08:16:43.322Z,6.40
2019-03-25T08:17:43.313Z,6.30
2019-03-25T08:18:43.306Z,6.30
2019-03-25T08:19:43.288Z,5.80
2019-03-25T08:20:43.279Z,6.10
2019-03-25T08:21:43.271Z,5.30
2019-03-25T08:22:43.256Z,4.70
2019-03-25T08:23:43.245Z,5.30
2019-03-25T08:24:43.234Z,5.50
2019-03-25T08:25:43.223Z,6.00
2019-03-25T08:26:43.215Z,5.60
2019-03-25T08:27:43.202Z,5.10
2019-03-25T08:28:43.198Z,4.80
2019-03-25T08:29:43.182Z,5.00
2019-03-25T08:30:43.172Z,5.30
2019-03-25T08:31:43.159Z,5.00
2019-03-25T08:32:43.151Z,4.80
2019-03-25T08:33:43.139Z,4.50
2019-03-25T08:34:43.128Z,4.90
2019-03-25T08:35:43.116Z,4.90
2019-03-25T08:36:43.106Z,4.70
2019-03-25T08:37:43.096Z,5.40
2019-03-25T08:38:43.088Z,4.70
2019-03-25T08:39:43.073Z,4.80
2019-03-25T08:40:43.063Z,4.60
2019-03-25T08:41:43.053Z,4.90
2019-03-25T08:42:43.040Z,4.90
2019-03-25T08:43:43.030Z,4.70
2019-03-25T08:44:43.020Z,5.00
2019-03-25T08:45:43.009Z,4.80
2019-03-25T08:46:42.998Z,5.00
2019-03-25T08:47:42.989Z,4.40
2019-03-25T08:48:43.044Z,4.30
2019-03-25T08:49:42.967Z,4.60
2019-03-25T08:50:42.959Z,3.90
2019-03-25T08:51:42.948Z,4.30
2019-03-25T08:52:42.936Z,4.40
2019-03-25T08:53:42.924Z,4.70
2019-03-25T08:54:42.913Z,4.60
2019-03-25T08:55:42.903Z,4.60
2019-03-25T08:56:42.893Z,4.10
2019-03-25T08:57:42.882Z,3.90
2019-03-25T08:58:42.876Z,4.00
2019-03-25T08:59:42.865Z,4.60
2019-03-25T09:00:42.849Z,4.50
2019-03-25T09:01:42.839Z,4.40
2019-03-25T09:02:42.827Z,4.40
2019-03-25T09:03:42.817Z,4.70
2019-03-25T09:04:42.810Z,4.20
2019-03-25T09:05:42.796Z,4.00
2019-03-25T09:06:42.785Z,4.10
2019-03-25T09:07:42.776Z,4.10
2019-03-25T09:08:42.766Z,4.40
2019-03-25T09:09:42.752Z,4.20
2019-03-25T09:10:42.742Z,4.20
2019-03-25T09:11:42.730Z,4.30
2019-03-25T09:12:42.728Z,4.30
2019-03-25T09:13:42.709Z,4.30
2019-03-25T09:14:42.702Z,3.70
2019-03-25T09:15:42.688Z,3.80
2019-03-25T09:16:42.676Z,3.90
2019-03-25T09:17:42.667Z,3.80
2019-03-25T09:18:42.659Z,3.90
2019-03-25T09:19:42.644Z,3.50
2019-03-25T09:20:42.633Z,4.10
2019-03-25T09:21:42.623Z,3.60
2019-03-25T09:22:42.614Z,3.80
2019-03-25T09:23:42.602Z,3.60
2019-03-25T09:24:42.592Z,3.60
2019-03-25T09:25:42.579Z,3.90
2019-03-25T09:26:42.568Z,3.90
2019-03-25T09:27:42.563Z,3.80
2019-03-25T09:28:42.550Z,4.10
2019-03-25T09:29:42.538Z,3.60
2019-03-25T09:30:42.526Z,3.80
2019-03-25T09:31:42.515Z,3.60
2019-03-25T09:32:42.502Z,3.60
2019-03-25T09:33:42.492Z,3.50
2019-03-25T09:34:42.481Z,3.50
2019-03-25T09:35:42.510Z,3.40
2019-03-25T09:36:42.460Z,3.20
2019-03-25T09:37:42.451Z,3.30
2019-03-25T09:38:42.444Z,3.50
2019-03-25T09:39:42.427Z,3.30
2019-03-25T09:40:42.417Z,3.10
2019-03-25T09:41:42.406Z,3.10
2019-03-25T09:42:42.396Z,2.80
2019-03-25T09:43:42.384Z,3.00
2019-03-25T09:44:42.373Z,3.20
2019-03-25T09:45:42.364Z,3.00
2019-03-25T09:46:42.353Z,2.70
2019-03-25T09:47:42.341Z,3.00
2019-03-25T09:48:42.335Z,2.60
2019-03-25T09:49:42.320Z,2.90
2019-03-25T09:50:42.310Z,2.50
2019-03-25T09:51:42.360Z,3.10
2019-03-25T09:52:42.287Z,2.70
2019-03-25T09:53:42.276Z,2.50
2019-03-25T09:54:42.268Z,2.20
2019-03-25T09:55:42.257Z,2.60
2019-03-25T09:56:42.249Z,2.70
2019-03-25T09:57:42.299Z,2.40
2019-03-25T09:58:42.228Z,2.70
2019-03-25T09:59:42.210Z,2.70
2019-03-25T10:00:42.200Z,2.60
2019-03-25T10:01:42.192Z,2.80
2019-03-25T10:02:42.179Z,2.40
2019-03-25T10:03:42.168Z,2.10
2019-03-25T10:04:42.158Z,2.20
2019-03-25T10:05:42.149Z,2.50
2019-03-25T10:06:42.137Z,2.50
2019-03-25T10:07:42.126Z,2.20
2019-03-25T10:08:42.118Z,2.10
2019-03-25T10:09:42.105Z,1.90
2019-03-25T10:10:42.097Z,1.60
2019-03-25T10:11:42.082Z,1.90
2019-03-25T10:12:42.073Z,2.30
2019-03-25T10:13:42.061Z,2.10
2019-03-25T10:14:42.051Z,1.80
2019-03-25T10:15:42.045Z,2.10
2019-03-25T10:16:42.029Z,1.80
2019-03-25T10:17:42.019Z,1.90
2019-03-25T10:18:42.009Z,1.50
2019-03-25T10:19:42.002Z,1.90
2019-03-25T10:20:41.988Z,1.90
2019-03-25T10:21:41.983Z,1.60
2019-03-25T10:22:41.965Z,1.50
2019-03-25T10:23:41.957Z,1.40
2019-03-25T10:24:41.943Z,1.50
2019-03-25T10:25:41.934Z,1.60
2019-03-25T10:26:41.920Z,1.70
2019-03-25T10:27:41.912Z,1.50
2019-03-25T10:28:48.546Z,1.70
2019-03-25T10:29:42.886Z,1.80
2019-03-25T10:30:41.877Z,2.20
2019-03-25T10:31:41.873Z,1.80
2019-03-25T10:32:41.854Z,2.30
2019-03-25T10:33:41.846Z,1.90
2019-03-25T10:34:41.833Z,2.00
2019-03-25T10:35:41.823Z,1.60
2019-03-25T10:36:41.813Z,2.40
2019-03-25T10:37:41.801Z,2.30
2019-03-25T10:38:41.793Z,1.90
2019-03-25T10:39:41.780Z,2.00
2019-03-25T10:40:41.768Z,2.00
2019-03-25T10:41:41.765Z,1.80
2019-03-25T10:42:41.748Z,1.80
2019-03-25T10:43:41.737Z,2.00
2019-03-25T10:44:41.731Z,2.20
2019-03-25T10:45:41.715Z,1.90
2019-03-25T10:46:41.707Z,2.10
2019-03-25T10:47:41.693Z,2.30
2019-03-25T10:48:41.686Z,2.00
2019-03-25T10:49:41.674Z,2.20
2019-03-25T10:50:41.661Z,2.10
2019-03-25T10:51:41.650Z,1.90
2019-03-25T10:52:41.640Z,1.80
2019-03-25T10:53:41.630Z,1.90
2019-03-25T10:54:41.716Z,2.20
2019-03-25T10:55:41.609Z,2.30
2019-03-25T10:56:48.985Z,1.80
2019-03-25T10:57:42.583Z,1.80
2019-03-25T10:58:41.576Z,2.00
2019-03-25T10:59:41.563Z,2.10
2019-03-25T11:00:41.562Z,2.10
2019-03-25T11:01:41.544Z,1.80
2019-03-25T11:02:41.532Z,1.50
2019-03-25T11:03:41.519Z,1.70
2019-03-25T11:04:41.509Z,1.50
2019-03-25T11:05:41.501Z,1.70
2019-03-25T11:06:41.486Z,1.60
2019-03-25T11:08:41.470Z,1.70
2019-03-25T11:09:41.453Z,1.80
2019-03-25T11:10:41.442Z,1.50
2019-03-25T11:11:41.433Z,1.50
2019-03-25T11:12:41.420Z,1.80
2019-03-25T11:13:41.412Z,1.50
2019-03-25T11:14:41.399Z,1.60
2019-03-25T11:15:41.387Z,1.30
2019-03-25T11:16:41.378Z,1.90
2019-03-25T11:17:41.366Z,1.60
2019-03-25T11:18:41.359Z,1.20
2019-03-25T11:19:41.353Z,1.80
2019-03-25T11:20:41.334Z,2.00
2019-03-25T11:21:41.323Z,1.40
2019-03-25T11:22:41.312Z,1.60
2019-03-25T11:23:41.301Z,1.40
2019-03-25T11:24:41.290Z,1.80
2019-03-25T11:25:41.279Z,1.50
2019-03-25T11:26:41.269Z,1.60
2019-03-25T11:27:41.257Z,1.60
2019-03-25T11:28:41.251Z,1.50
2019-03-25T11:29:41.240Z,1.70
2019-03-25T11:30:41.225Z,1.80
2019-03-25T11:31:41.215Z,1.40
2019-03-25T11:32:41.203Z,1.30
2019-03-25T11:33:41.193Z,1.40
2019-03-25T11:34:41.185Z,1.30
2019-03-25T11:35:41.178Z,1.20
2019-03-25T11:36:41.163Z,1.30
2019-03-25T11:37:41.149Z,1.20
2019-03-25T11:38:41.141Z,1.20
2019-03-25T11:39:41.128Z,1.00
2019-03-25T11:40:41.117Z,0.90
2019-03-25T11:41:41.106Z,1.10
2019-03-25T11:42:41.096Z,1.00
2019-03-25T11:43:41.083Z,1.00
2019-03-25T11:44:41.073Z,1.00
2019-03-25T11:45:41.062Z,1.10
2019-03-25T11:46:41.053Z,1.20
2019-03-25T11:47:41.040Z,1.20
2019-03-25T11:48:41.032Z,1.10
2019-03-25T11:49:41.018Z,1.30
2019-03-25T11:50:41.008Z,1.10
2019-03-25T11:51:40.999Z,0.90
2019-03-25T11:52:40.986Z,1.00
2019-03-25T11:53:40.974Z,0.80
2019-03-25T11:54:40.964Z,0.60
2019-03-25T11:55:40.952Z,0.80
2019-03-25T11:56:40.943Z,1.00
2019-03-25T11:57:40.932Z,0.70
2019-03-25T11:58:40.923Z,0.80
2019-03-25T11:59:40.909Z,0.80
2019-03-25T12:00:40.897Z,0.80
2019-03-25T12:01:40.886Z,0.80
2019-03-25T12:02:40.880Z,0.80
2019-03-25T12:03:40.867Z,0.70
2019-03-25T12:04:40.864Z,0.80
2019-03-25T12:05:40.860Z,0.90
2019-03-25T12:06:40.833Z,1.10
2019-03-25T12:07:40.821Z,1.20
2019-03-25T12:08:40.813Z,1.00
2019-03-25T12:09:41.656Z,1.20
2019-03-25T12:10:40.789Z,1.10
2019-03-25T12:11:40.778Z,1.40
2019-03-25T12:12:40.768Z,1.10
2019-03-25T12:13:40.795Z,1.30
2019-03-25T12:14:40.744Z,1.40
2019-03-25T12:15:40.735Z,1.30
2019-03-25T12:16:40.723Z,1.30
2019-03-25T12:17:40.715Z,1.00
2019-03-25T12:18:40.702Z,1.20
2019-03-25T12:19:40.691Z,1.20
2019-03-25T12:20:40.680Z,1.20
2019-03-25T12:21:40.669Z,1.20
2019-03-25T12:22:40.658Z,1.20
2019-03-25T12:23:40.650Z,1.20
2019-03-25T12:24:40.639Z,1.20
2019-03-25T12:25:40.628Z,1.10
2019-03-25T12:26:40.616Z,1.40
2019-03-25T12:27:40.697Z,1.20
2019-03-25T12:28:40.596Z,1.90
2019-03-25T12:29:40.586Z,2.50
2019-03-25T12:30:40.572Z,15.20
2019-03-25T12:31:40.562Z,9.80
2019-03-25T12:32:40.551Z,5.00
2019-03-25T12:33:40.543Z,6.90
2019-03-25T12:34:40.529Z,3.20
2019-03-25T12:35:40.518Z,2.30
2019-03-25T12:36:40.507Z,7.00
2019-03-25T12:37:40.496Z,10.20
2019-03-25T12:38:40.485Z,5.60
2019-03-25T12:39:40.475Z,3.70
2019-03-25T12:40:40.462Z,4.20
2019-03-25T12:41:40.452Z,5.60
2019-03-25T12:42:40.441Z,15.70
2019-03-25T12:43:40.430Z,1.50
2019-03-25T12:44:40.418Z,5.70
2019-03-25T12:45:40.407Z,6.60
2019-03-25T12:46:40.398Z,4.20
2019-03-25T12:47:40.387Z,4.60
2019-03-25T12:48:40.375Z,2.60
2019-03-25T12:49:40.367Z,2.80
2019-03-25T12:50:40.353Z,1.50
2019-03-25T12:51:40.345Z,0.90
2019-03-25T12:52:40.332Z,0.70
2019-03-25T12:53:40.322Z,0.60
2019-03-25T12:54:40.311Z,0.40
2019-03-25T12:55:40.300Z,0.50
2019-03-25T12:56:40.292Z,0.50
2019-03-25T12:57:40.279Z,0.70
2019-03-25T12:58:40.272Z,0.70
2019-03-25T12:59:41.411Z,0.60
2019-03-25T13:00:40.246Z,0.70
2019-03-25T13:01:40.235Z,0.70
2019-03-25T13:02:40.229Z,0.90
2019-03-25T13:03:40.825Z,0.80
2019-03-25T13:04:40.202Z,1.10
2019-03-25T13:05:40.192Z,0.60
2019-03-25T13:06:40.185Z,0.80
2019-03-25T13:07:40.171Z,0.60
2019-03-25T13:08:40.159Z,0.90
2019-03-25T13:09:40.147Z,1.20
2019-03-25T13:10:40.140Z,0.80
2019-03-25T13:11:40.133Z,0.70
2019-03-25T13:12:40.115Z,0.90
2019-03-25T13:13:40.111Z,1.00
2019-03-25T13:14:40.094Z,0.90
2019-03-25T13:15:40.086Z,0.70
2019-03-25T13:16:40.074Z,1.00
2019-03-25T13:17:40.062Z,0.80
2019-03-25T13:18:40.052Z,0.80
2019-03-25T13:19:40.040Z,0.90